Time;durP1;ratioP1;P1;durP2;ratioP2;P2;SDS_P1;SDS_P2;PMS_P1;PMS_P2;Temp;Humidity;BMP_temperature;BMP_pressure;BME280_temperature;BME280_humidity;BME280_pressure;Samples;Min_cycle;Max_cycle;Signal;HPM_P1;HPM_P2
2023/06/25 00:04:40;;;;;;;9.07;6.88;;;;;;;-145.68;100.00;74283.41;10538429;28;20276;-73
2023/06/25 00:09:51;;;;;;;10.48;7.57;;;;;;;-145.68;100.00;74283.41;10538264;28;20654;-73
2023/06/25 00:14:51;;;;;;;10.48;6.45;;;;;;;-145.68;100.00;74283.41;10537952;28;20183;-73
2023/06/25 00:19:52;;;;;;;8.93;6.93;;;;;;;-145.68;100.00;74275.41;10538057;28;20182;-73
2023/06/25 00:24:52;;;;;;;10.00;7.50;;;;;;;-145.68;100.00;74283.41;10537335;28;20660;-73
2023/06/25 00:29:52;;;;;;;8.82;6.82;;;;;;;-145.68;100.00;74283.41;10537506;28;20601;-73
2023/06/25 00:34:57;;;;;;;10.43;8.13;;;;;;;-145.68;100.00;74281.41;10518739;28;20257;-73
2023/06/25 00:39:58;;;;;;;9.68;8.23;;;;;;;-145.68;100.00;74293.41;10536756;28;20546;-73
2023/06/25 00:45:00;;;;;;;10.77;7.30;;;;;;;-145.68;100.00;74297.41;10537209;28;20214;-73
2023/06/25 00:50:00;;;;;;;9.40;7.25;;;;;;;-145.68;100.00;74305.38;10536593;28;20185;-73
2023/06/25 00:55:00;;;;;;;8.90;7.90;;;;;;;-145.68;100.00;74311.38;10518715;28;20193;-73
2023/06/25 01:00:03;;;;;;;13.73;7.83;;;;;;;-145.68;100.00;74323.38;10535992;28;20195;-73
2023/06/25 01:05:20;;;;;;;8.63;7.03;;;;;;;-145.68;100.00;74317.38;10536553;28;20222;-73
2023/06/25 01:10:20;;;;;;;14.68;7.45;;;;;;;-145.68;100.00;74315.38;10536097;28;20606;-73
2023/06/25 01:15:20;;;;;;;9.98;7.43;;;;;;;-145.68;100.00;74333.38;10535126;28;20190;-72
2023/06/25 01:20:21;;;;;;;10.10;7.97;;;;;;;-145.68;100.00;74327.38;10518209;28;20587;-73
2023/06/25 01:25:22;;;;;;;9.48;7.55;;;;;;;-145.68;100.00;74327.38;10535914;28;20233;-73
2023/06/25 01:30:25;;;;;;;11.63;7.30;;;;;;;-145.68;100.00;74323.38;10535859;28;20638;-72
2023/06/25 01:35:25;;;;;;;8.60;7.47;;;;;;;-145.68;100.00;74335.38;10535637;28;20213;-73
2023/06/25 01:40:26;;;;;;;9.53;7.80;;;;;;;-145.68;100.00;74339.38;10535828;28;20222;-72
2023/06/25 01:45:26;;;;;;;9.37;7.43;;;;;;;-145.68;100.00;74323.38;10517480;28;20701;-72
2023/06/25 01:50:27;;;;;;;11.93;7.75;;;;;;;-145.68;100.00;74327.38;10535794;28;20186;-72
2023/06/25 01:55:27;;;;;;;12.33;8.30;;;;;;;-145.68;100.00;74327.38;10535491;28;20175;-71
2023/06/25 02:00:28;;;;;;;9.73;7.53;;;;;;;-145.68;100.00;74335.38;10517255;28;20194;-72
2023/06/25 02:05:37;;;;;;;14.03;7.57;;;;;;;-145.68;100.00;74335.38;10535502;28;20223;-72
2023/06/25 02:10:37;;;;;;;12.20;8.10;;;;;;;-145.68;100.00;74331.38;10517030;28;20270;-74
2023/06/25 02:15:37;;;;;;;10.00;8.00;;;;;;;-145.68;100.00;74333.38;10541383;28;20261;-73
2023/06/25 02:20:38;;;;;;;8.88;7.40;;;;;;;-145.68;100.00;74331.38;10542384;28;20725;-73
2023/06/25 02:25:38;;;;;;;10.67;7.37;;;;;;;-145.68;100.00;74341.38;10542268;28;20690;-73
2023/06/25 02:30:38;;;;;;;12.97;7.50;;;;;;;-145.68;100.00;74343.38;10541946;28;20845;-73
2023/06/25 02:35:39;;;;;;;9.80;7.37;;;;;;;-145.68;100.00;74347.38;10523764;28;20574;-73
2023/06/25 02:40:39;;;;;;;11.40;7.00;;;;;;;-145.68;100.00;74351.38;10541545;28;20210;-73
2023/06/25 02:45:40;;;;;;;10.77;7.37;;;;;;;-145.68;100.00;74351.38;10541591;28;20686;-73
2023/06/25 02:50:40;;;;;;;8.90;6.67;;;;;;;-145.68;100.00;74347.38;10523065;28;20294;-73
2023/06/25 02:55:41;;;;;;;11.37;7.23;;;;;;;-145.68;100.00;74345.38;10523004;28;20193;-73
2023/06/25 03:00:41;;;;;;;13.67;7.47;;;;;;;-145.68;100.00;74349.38;10523025;28;20289;-73
2023/06/25 03:05:42;;;;;;;9.90;6.67;;;;;;;-145.68;100.00;74351.38;10522415;28;20309;-73
2023/06/25 03:10:43;;;;;;;10.10;6.63;;;;;;;-145.68;100.00;74351.38;10556416;28;20179;-73
2023/06/25 03:15:44;;;;;;;8.60;7.70;;;;;;;-145.68;100.00;74355.38;10540191;28;20182;-73
2023/06/25 03:20:44;;;;;;;10.97;7.30;;;;;;;-145.68;100.00;74357.38;10522121;28;20221;-73
2023/06/25 03:25:44;;;;;;;10.27;7.30;;;;;;;-145.68;100.00;74353.38;10504953;28;20223;-73
2023/06/25 03:30:51;;;;;;;9.77;7.23;;;;;;;-145.68;100.00;74339.38;10520898;28;20642;-73
2023/06/25 03:35:53;;;;;;;13.30;6.77;;;;;;;-145.68;100.00;74331.38;10520687;28;20670;-73
2023/06/25 03:40:54;;;;;;;8.90;6.50;;;;;;;-145.68;100.00;74325.38;10520679;28;20272;-73
2023/06/25 03:45:54;;;;;;;9.83;6.77;;;;;;;-145.68;100.00;74331.38;10538734;28;20214;-73
2023/06/25 03:50:55;;;;;;;8.88;6.95;;;;;;;-145.68;100.00;74325.38;10538286;28;20190;-73
2023/06/25 03:55:55;;;;;;;8.37;6.87;;;;;;;-145.68;100.00;74323.38;10520449;28;20630;-74
2023/06/25 04:00:55;;;;;;;10.07;7.03;;;;;;;-145.68;100.00;74313.38;10519823;28;20198;-73
2023/06/25 04:05:56;;;;;;;9.07;7.25;;;;;;;-145.68;100.00;74273.41;10553517;28;20214;-73
2023/06/25 04:10:56;;;;;;;8.63;6.10;;;;;;;-145.68;100.00;74253.41;10519537;28;20190;-73
2023/06/25 04:15:56;;;;;;;8.98;6.97;;;;;;;-145.68;100.00;74223.44;10519485;28;20194;-73
2023/06/25 04:20:57;;;;;;;10.88;7.63;;;;;;;-145.68;100.00;74209.44;10537434;28;20182;-74
2023/06/25 04:25:57;;;;;;;11.32;6.72;;;;;;;-145.68;100.00;74161.44;10537423;28;20668;-72
2023/06/25 04:30:58;;;;;;;11.02;6.43;;;;;;;-145.68;100.00;74143.47;10536993;28;20230;-73
2023/06/25 04:35:58;;;;;;;8.20;5.90;;;;;;;-145.68;100.00;74115.47;10551845;28;20605;-73
2023/06/25 04:41:00;;;;;;;10.90;5.75;;;;;;;-145.68;100.00;74093.47;10518693;28;20293;-73
2023/06/25 04:46:00;;;;;;;11.88;6.80;;;;;;;-145.68;100.00;74069.50;10536562;28;20259;-73
2023/06/25 04:51:03;;;;;;;9.68;5.75;;;;;;;-145.68;100.00;74029.50;10518473;28;20239;-73
2023/06/25 04:56:03;;;;;;;7.57;6.15;;;;;;;-145.68;100.00;73991.53;10536564;28;20675;-73
2023/06/25 05:01:04;;;;;;;8.05;5.82;;;;;;;-145.68;100.00;73963.53;10536480;28;20215;-73
2023/06/25 05:06:04;;;;;;;15.00;6.10;;;;;;;-145.68;100.00;73935.56;10535938;28;20218;-74
2023/06/25 05:11:05;;;;;;;7.32;6.32;;;;;;;-145.68;100.00;73897.56;10536232;28;20205;-74
2023/06/25 05:16:05;;;;;;;7.63;5.72;;;;;;;-145.68;100.00;73857.59;10536233;28;20282;-73
2023/06/25 05:21:05;;;;;;;8.63;5.97;;;;;;;-145.68;100.00;73809.63;10535705;28;20190;-74
2023/06/25 05:26:06;;;;;;;8.63;5.93;;;;;;;-145.68;100.00;73757.66;10535975;28;20315;-74
2023/06/25 05:31:07;;;;;;;8.43;5.97;;;;;;;-145.68;100.00;73719.66;10535269;28;20226;-71
2023/06/25 05:36:07;;;;;;;7.95;5.60;;;;;;;-145.68;98.09;73671.69;10535463;28;20269;-71
2023/06/25 05:41:08;;;;;;;6.80;5.25;;;;;;;-145.68;96.37;73627.72;10535302;28;20301;-73
2023/06/25 05:46:13;;;;;;;8.15;5.97;;;;;;;-145.68;93.71;73589.75;10535488;28;20218;-71
2023/06/25 05:51:13;;;;;;;9.32;5.85;;;;;;;-145.68;89.59;73559.75;10542827;28;20199;-74
2023/06/25 05:56:14;;;;;;;6.85;5.80;;;;;;;-145.68;88.42;73517.78;10543219;28;20187;-72
2023/06/25 06:01:14;;;;;;;11.05;5.25;;;;;;;-145.68;83.73;73473.81;10543290;28;20193;-72
2023/06/25 06:06:16;;;;;;;6.18;4.55;;;;;;;-145.68;79.80;73431.84;10542604;28;20735;-72
2023/06/25 06:11:16;;;;;;;5.97;4.63;;;;;;;-145.68;77.06;73367.88;10542911;28;20206;-72
2023/06/25 06:16:16;;;;;;;5.50;4.93;;;;;;;-145.68;75.36;73311.91;10542378;28;20187;-72
2023/06/25 06:21:17;;;;;;;9.07;5.03;;;;;;;-145.68;70.75;73251.94;10542451;28;20239;-72
2023/06/25 06:26:17;;;;;;;8.65;4.97;;;;;;;-145.68;68.35;73156.00;10542043;28;20214;-71
2023/06/25 06:31:18;;;;;;;7.80;4.40;;;;;;;-145.68;62.76;72986.13;10541542;28;20587;-73
2023/06/25 06:36:19;;;;;;;5.40;4.90;;;;;;;-145.68;57.83;72860.22;10541711;28;20218;-71
2023/06/25 06:41:19;;;;;;;9.18;4.60;;;;;;;-145.68;53.49;72748.31;10541329;28;20622;-71
2023/06/25 06:46:19;;;;;;;4.32;3.60;;;;;;;-145.68;48.88;72526.50;10541376;28;20240;-71
2023/06/25 06:51:20;;;;;;;9.98;4.05;;;;;;;-145.68;43.98;72294.72;10540814;28;20211;-71
2023/06/25 06:56:20;;;;;;;4.17;3.40;;;;;;;-145.68;43.20;72182.81;10541161;28;20186;-72
2023/06/25 07:01:20;;;;;;;5.22;4.30;;;;;;;-145.68;41.29;72136.84;10540082;28;20467;-71
2023/06/25 07:06:21;;;;;;;5.43;4.13;;;;;;;-145.68;41.67;72240.75;10540699;28;20657;-71
2023/06/25 07:11:21;;;;;;;4.75;3.65;;;;;;;-145.68;41.34;72222.78;10540243;28;20355;-71
2023/06/25 07:16:22;;;;;;;5.65;4.03;;;;;;;-145.68;38.73;72024.97;10539962;28;20246;-71
2023/06/25 07:21:22;;;;;;;12.35;3.92;;;;;;;-145.68;38.35;72012.97;10521844;28;20251;-72
2023/06/25 07:26:22;;;;;;;5.30;3.77;;;;;;;-145.68;39.68;72038.94;10539580;28;20269;-72
2023/06/25 07:31:23;;;;;;;4.90;3.60;;;;;;;-145.68;40.11;72092.91;10539418;28;20478;-72
2023/06/25 07:36:23;;;;;;;5.37;4.17;;;;;;;-145.68;39.29;72048.94;10538681;28;20476;-72
2023/06/25 07:41:23;;;;;;;5.70;4.10;;;;;;;-145.68;39.55;72160.81;10539017;28;20502;-72
2023/06/25 07:46:24;;;;;;;9.90;4.47;;;;;;;-145.68;40.13;72134.84;10520502;28;20946;-72
2023/06/25 07:51:24;;;;;;;5.55;4.00;;;;;;;-145.68;39.67;72194.78;10538734;28;20754;-72
2023/06/25 07:56:25;;;;;;;8.23;4.03;;;;;;;-145.68;40.29;72242.75;10538495;28;20686;-72
2023/06/25 08:01:25;;;;;;;4.40;4.00;;;;;;;-145.68;39.55;72132.84;10538016;28;20811;-72
2023/06/25 08:06:25;;;;;;;4.33;3.93;;;;;;;-145.68;39.07;72124.88;10538175;28;20433;-72
2023/06/25 08:11:26;;;;;;;4.90;3.88;;;;;;;-145.68;36.95;71989.00;10536877;28;20493;-71
2023/06/25 08:16:28;;;;;;;4.85;3.63;;;;;;;-145.68;37.76;72090.91;10537742;28;20318;-72
2023/06/25 08:21:28;;;;;;;6.60;4.05;;;;;;;-145.68;39.87;72176.81;10519339;28;20661;-71
2023/06/25 08:26:29;;;;;;;4.57;3.27;;;;;;;-145.68;40.46;72230.75;10537014;28;20193;-71
2023/06/25 08:31:29;;;;;;;5.82;3.58;;;;;;;-145.68;40.90;72280.72;10537049;28;20494;-72
2023/06/25 08:36:29;;;;;;;6.67;3.47;;;;;;;-145.68;40.24;72254.75;10536617;28;20267;-72
2023/06/25 08:41:30;;;;;;;4.97;3.60;;;;;;;-145.68;41.94;72350.66;10536723;28;20456;-72
2023/06/25 08:46:31;;;;;;;4.72;3.70;;;;;;;-145.68;42.78;72374.63;10536513;28;20191;-73
2023/06/25 08:51:32;;;;;;;6.72;3.78;;;;;;;-145.68;39.86;72146.84;10536362;28;20228;-72
2023/06/25 08:56:33;;;;;;;3.72;3.38;;;;;;;-145.68;36.76;71831.16;10536395;28;20251;-73
2023/06/25 09:01:33;;;;;;;5.28;3.78;;;;;;;-145.68;35.71;71741.25;10536214;28;20576;-72
2023/06/25 09:06:40;;;;;;;5.97;3.58;;;;;;;-145.68;34.95;71661.31;10536151;28;20194;-74
2023/06/25 09:11:40;;;;;;;5.85;3.78;;;;;;;-145.68;35.17;71659.34;10536291;28;20194;-72
2023/06/25 09:16:47;;;;;;;4.97;3.83;;;;;;;-145.68;35.01;71681.31;10535726;28;20214;-72
2023/06/25 09:21:48;;;;;;;3.72;3.30;;;;;;;-145.68;37.74;71885.09;10537828;28;20187;-73
2023/06/25 09:26:51;;;;;;;3.60;3.22;;;;;;;-145.68;38.06;71923.06;10544285;28;20186;-73
2023/06/25 09:31:52;;;;;;;3.35;3.05;;;;;;;-145.68;35.70;71719.25;10543428;28;20231;-72
2023/06/25 09:36:52;;;;;;;3.70;3.40;;;;;;;-145.68;35.67;71797.19;10543396;28;21995;-72
2023/06/25 09:41:53;;;;;;;3.97;3.40;;;;;;;-145.68;38.41;71973.00;10543695;28;20190;-73
2023/06/25 09:47:07;;;;;;;3.33;3.00;;;;;;;-145.68;37.10;72080.91;10543835;28;20190;-73
2023/06/25 09:52:09;;;;;;;3.25;2.95;;;;;;;-145.68;40.06;72218.78;10543460;28;20190;-72
2023/06/25 09:57:14;;;;;;;4.90;3.25;;;;;;;-145.68;38.99;72156.84;10543213;28;20259;-72
2023/06/25 10:02:15;;;;;;;6.38;3.22;;;;;;;-145.68;40.14;72188.81;10542946;28;20191;-72
2023/06/25 10:07:16;;;;;;;5.10;3.13;;;;;;;-145.68;37.76;71975.00;10542938;28;20182;-73
2023/06/25 10:12:18;;;;;;;4.07;3.15;;;;;;;-145.68;40.12;72024.97;10524172;28;20229;-72
2023/06/25 10:17:22;;;;;;;3.88;3.25;;;;;;;-145.68;36.72;71803.19;10524190;28;20283;-72
2023/06/25 10:22:23;;;;;;;5.82;3.35;;;;;;;-145.68;36.09;71765.22;10542522;28;20244;-72
2023/06/25 10:27:23;;;;;;;4.00;2.88;;;;;;;-145.68;35.00;71665.31;10542644;28;20511;-72
2023/06/25 10:32:28;;;;;;;3.65;3.22;;;;;;;-145.68;34.64;71607.38;10541749;28;20230;-72
2023/06/25 10:37:29;;;;;;;5.13;3.13;;;;;;;-145.68;34.08;71569.44;10541099;28;20223;-73
2023/06/25 10:42:30;;;;;;;3.45;2.95;;;;;;;-145.68;35.17;71611.38;10541977;28;20603;-72
2023/06/25 10:47:32;;;;;;;3.40;2.80;;;;;;;-145.68;32.95;71471.53;10541469;28;20190;-73
2023/06/25 10:52:32;;;;;;;7.80;2.83;;;;;;;-145.68;33.68;71549.44;10541262;28;20564;-72
2023/06/25 10:57:33;;;;;;;3.30;3.00;;;;;;;-145.68;35.48;71701.28;10541432;28;20202;-72
2023/06/25 11:02:33;;;;;;;4.07;3.40;;;;;;;-145.68;36.04;71761.22;10540929;28;20277;-72
2023/06/25 11:07:33;;;;;;;4.07;2.75;;;;;;;-145.68;37.38;71903.06;10541201;28;20557;-72
2023/06/25 11:12:34;;;;;;;2.90;2.70;;;;;;;-145.68;38.69;72006.97;10540205;28;20233;-73
2023/06/25 11:17:34;;;;;;;4.83;3.00;;;;;;;-145.68;37.32;71911.06;10540847;28;20198;-73
2023/06/25 11:22:44;;;;;;;3.37;2.80;;;;;;;-145.68;35.96;71743.25;10539987;28;20436;-73
2023/06/25 11:27:44;;;;;;;4.03;2.70;;;;;;;-145.68;37.58;71791.19;10539995;28;20449;-73
2023/06/25 11:32:45;;;;;;;3.42;2.58;;;;;;;-145.68;36.21;71739.25;10539789;28;20223;-73
2023/06/25 11:37:47;;;;;;;2.85;2.55;;;;;;;-145.68;33.96;71491.50;10539032;28;20209;-73
2023/06/25 11:42:47;;;;;;;3.97;2.78;;;;;;;-145.68;35.19;71749.22;10539611;28;20203;-73
2023/06/25 11:47:53;;;;;;;3.33;2.70;;;;;;;-145.68;34.04;71587.41;10538136;28;20201;-73
2023/06/25 11:52:55;;;;;;;2.90;2.60;;;;;;;-145.68;34.33;71465.53;10520945;28;20303;-73
2023/06/25 11:57:55;;;;;;;3.47;2.80;;;;;;;-145.68;32.70;71379.63;10539012;28;20200;-74
2023/06/25 12:02:56;;;;;;;4.77;2.20;;;;;;;-145.68;35.41;71657.34;10538554;28;20182;-73
2023/06/25 12:07:56;;;;;;;3.13;2.20;;;;;;;-145.68;34.50;71639.34;10538382;28;20448;-73
2023/06/25 12:12:56;;;;;;;2.92;2.38;;;;;;;-145.68;34.19;71561.44;10538290;28;20484;-73
2023/06/25 12:17:57;;;;;;;4.10;2.72;;;;;;;-145.68;36.15;71717.28;10538192;28;20265;-74
2023/06/25 12:22:57;;;;;;;3.50;2.60;;;;;;;-145.68;35.27;71637.34;10537902;28;20190;-71
2023/06/25 12:27:58;;;;;;;3.13;2.77;;;;;;;-145.68;35.57;71599.41;10537691;28;20481;-73
2023/06/25 12:32:58;;;;;;;4.45;2.80;;;;;;;-145.68;36.95;71715.28;10537309;28;20480;-72
2023/06/25 12:37:59;;;;;;;3.90;2.70;;;;;;;-145.68;34.88;71583.41;10518905;28;20270;-72
2023/06/25 12:42:59;;;;;;;6.17;2.47;;;;;;;-145.68;33.37;71365.66;10537199;28;20629;-72
2023/06/25 12:48:00;;;;;;;4.72;2.67;;;;;;;-145.68;31.77;71277.75;10537321;28;20448;-72
2023/06/25 12:53:00;;;;;;;3.07;2.77;;;;;;;-145.68;33.17;71277.75;10536502;28;20233;-72
2023/06/25 12:58:00;;;;;;;2.97;2.57;;;;;;;-145.68;31.79;71217.81;10536829;28;20437;-72
2023/06/25 13:03:03;;;;;;;3.93;2.67;;;;;;;-145.68;32.38;71281.75;10536298;28;20458;-72
2023/06/25 13:08:03;;;;;;;3.33;2.67;;;;;;;-145.68;34.08;71309.72;10536807;28;20931;-72
2023/06/25 13:13:03;;;;;;;3.03;2.78;;;;;;;-145.68;31.35;71201.84;10536531;28;20214;-72
2023/06/25 13:18:04;;;;;;;3.73;2.63;;;;;;;-145.68;32.03;71211.84;10536341;28;20264;-72
2023/06/25 13:23:04;;;;;;;2.37;2.17;;;;;;;-145.68;31.13;71099.97;10536381;28;20439;-72
2023/06/25 13:28:05;;;;;;;3.50;2.60;;;;;;;-145.68;30.77;71097.97;10535937;28;20827;-72
2023/06/25 13:33:06;;;;;;;2.97;2.78;;;;;;;-145.68;32.35;71319.72;10535839;28;20519;-73
2023/06/25 13:38:06;;;;;;;3.10;2.80;;;;;;;-145.68;33.54;71241.78;10535594;28;20688;-72
2023/06/25 13:43:06;;;;;;;3.13;2.60;;;;;;;-145.68;30.52;70954.16;10535890;28;20699;-72
2023/06/25 13:48:07;;;;;;;8.10;3.00;;;;;;;-145.68;30.43;70986.09;10535719;28;20962;-72
2023/06/25 13:53:07;;;;;;;4.03;3.23;;;;;;;-145.68;31.42;71024.06;10535323;28;20503;-72
2023/06/25 13:58:07;;;;;;;4.27;2.63;;;;;;;-145.68;29.59;70826.31;10535834;28;20451;-73
2023/06/25 14:03:08;;;;;;;3.40;2.70;;;;;;;-145.68;32.02;71131.94;10535417;28;20192;-73
2023/06/25 14:08:08;;;;;;;3.75;3.30;;;;;;;-145.68;33.95;71355.66;10536172;28;20455;-72
2023/06/25 14:13:10;;;;;;;4.32;3.38;;;;;;;-145.68;33.30;71337.69;10542841;28;20222;-72
2023/06/25 14:18:11;;;;;;;4.68;3.03;;;;;;;-145.68;33.70;71349.66;10542947;28;20684;-72
2023/06/25 14:23:11;;;;;;;3.88;3.10;;;;;;;-145.68;33.93;71419.59;10542560;28;20221;-72
2023/06/25 14:28:12;;;;;;;3.27;2.97;;;;;;;-145.68;33.69;71379.63;10524459;28;20190;-72
2023/06/25 14:33:12;;;;;;;3.53;3.22;;;;;;;-145.68;34.48;71523.47;10541570;28;20488;-72
2023/06/25 14:38:12;;;;;;;3.83;2.90;;;;;;;-145.68;35.03;71581.41;10542001;28;20206;-72
2023/06/25 14:43:13;;;;;;;4.73;3.77;;;;;;;-145.68;35.09;71513.50;10541861;28;20932;-72
2023/06/25 14:48:13;;;;;;;4.13;3.70;;;;;;;-145.68;34.45;71385.63;10541651;28;20808;-72
2023/06/25 14:53:14;;;;;;;5.03;3.93;;;;;;;-145.68;33.58;71237.81;10557320;28;20810;-72
2023/06/25 14:58:14;;;;;;;3.75;3.38;;;;;;;-145.68;32.82;71093.97;10540973;28;20531;-72
2023/06/25 15:03:15;;;;;;;5.47;3.73;;;;;;;-145.68;30.62;70956.13;10541303;28;20186;-72
2023/06/25 15:08:15;;;;;;;3.47;3.17;;;;;;;-145.68;29.14;70732.44;10540568;28;20190;-72
2023/06/25 15:13:16;;;;;;;3.40;3.10;;;;;;;-145.68;28.39;70692.47;10540838;28;20505;-72
2023/06/25 15:18:16;;;;;;;4.50;2.95;;;;;;;-145.68;28.46;70778.38;10540329;28;20436;-73
2023/06/25 15:23:16;;;;;;;3.20;2.90;;;;;;;-145.68;28.62;70678.50;10539956;28;20192;-72
2023/06/25 15:28:17;;;;;;;3.30;3.00;;;;;;;-145.68;30.80;70934.16;10540349;28;20962;-73
2023/06/25 15:33:17;;;;;;;3.73;3.20;;;;;;;-145.68;31.91;71022.06;10538290;28;20233;-72
2023/06/25 15:38:18;;;;;;;6.07;3.65;;;;;;;-145.68;30.20;70942.16;10539422;28;20213;-72
2023/06/25 15:43:18;;;;;;;3.50;3.20;;;;;;;-145.68;31.00;71066.00;10538966;28;20193;-72
2023/06/25 15:48:18;;;;;;;5.03;3.73;;;;;;;-145.68;32.10;71099.97;10539203;28;20186;-72
2023/06/25 15:53:19;;;;;;;5.50;3.57;;;;;;;-145.68;31.19;71010.06;10538741;28;20486;-72
2023/06/25 15:58:19;;;;;;;3.90;3.50;;;;;;;-145.68;30.41;70910.19;10538750;28;20440;-72
2023/06/25 16:03:19;;;;;;;3.90;3.43;;;;;;;-145.68;34.65;71259.78;10538599;28;20436;-72
2023/06/25 16:08:20;;;;;;;4.82;3.72;;;;;;;-145.68;32.59;71137.91;10538168;28;20447;-72
2023/06/25 16:13:20;;;;;;;7.80;3.90;;;;;;;-145.68;33.99;71337.69;10538300;28;20244;-71
2023/06/25 16:18:20;;;;;;;5.27;3.57;;;;;;;-145.68;37.52;71607.38;10537807;28;20511;-72
2023/06/25 16:23:21;;;;;;;4.97;3.97;;;;;;;-145.68;37.72;71677.31;10537887;28;20490;-72
2023/06/25 16:28:21;;;;;;;6.55;3.60;;;;;;;-145.68;36.86;71651.34;10537252;28;20436;-72
2023/06/25 16:33:22;;;;;;;4.00;3.60;;;;;;;-145.68;36.93;71697.28;10536381;28;20256;-71
2023/06/25 16:38:22;;;;;;;3.95;3.50;;;;;;;-145.68;39.17;71847.13;10537220;28;20460;-72
2023/06/25 16:43:22;;;;;;;3.87;3.47;;;;;;;-145.68;38.65;71877.09;10537092;28;20186;-71
2023/06/25 16:48:23;;;;;;;3.87;3.43;;;;;;;-145.68;38.65;71861.13;10537008;28;20464;-71
2023/06/25 16:53:23;;;;;;;5.93;4.87;;;;;;;-145.68;39.92;71917.06;10536664;28;20480;-71
2023/06/25 16:58:23;;;;;;;8.33;3.37;;;;;;;-145.68;39.41;71927.06;10536819;28;20448;-71
2023/06/25 17:03:24;;;;;;;7.47;3.90;;;;;;;-145.68;39.79;71923.06;10518115;28;20444;-72
2023/06/25 17:08:24;;;;;;;5.28;3.70;;;;;;;-145.68;41.09;72062.91;10536625;28;20451;-71
2023/06/25 17:13:25;;;;;;;5.33;3.77;;;;;;;-145.68;40.76;72042.94;10535992;28;20222;-71
2023/06/25 17:18:25;;;;;;;4.03;3.60;;;;;;;-145.68;41.34;72092.91;10536214;28;20443;-71
2023/06/25 17:23:26;;;;;;;3.90;3.55;;;;;;;-145.68;42.58;72132.84;10536104;28;20681;-71
2023/06/25 17:28:26;;;;;;;4.10;3.70;;;;;;;-145.68;42.51;72148.84;10535995;28;20212;-72
2023/06/25 17:33:26;;;;;;;3.90;3.50;;;;;;;-145.68;42.72;72142.84;10535494;28;20239;-72
2023/06/25 17:38:27;;;;;;;3.97;3.57;;;;;;;-145.68;42.74;72134.84;10535713;28;20513;-71
2023/06/25 17:43:29;;;;;;;5.47;3.67;;;;;;;-145.68;42.12;72138.84;10538722;28;20440;-72
2023/06/25 17:48:29;;;;;;;4.85;4.03;;;;;;;-145.68;43.47;72184.81;10543890;28;20244;-72
2023/06/25 17:53:34;;;;;;;6.00;4.20;;;;;;;-145.68;44.52;72228.75;10543684;28;20218;-72
2023/06/25 17:58:35;;;;;;;5.43;3.78;;;;;;;-145.68;45.98;72296.69;10543663;28;20190;-72
2023/06/25 18:03:36;;;;;;;8.43;4.28;;;;;;;-145.68;45.83;72332.66;10543359;28;20243;-72
2023/06/25 18:08:36;;;;;;;4.50;4.07;;;;;;;-145.68;45.02;72284.72;10543066;28;20201;-72
2023/06/25 18:13:37;;;;;;;6.45;3.95;;;;;;;-145.68;44.95;72294.72;10542793;28;20226;-71
2023/06/25 18:18:43;;;;;;;5.05;3.90;;;;;;;-145.68;45.83;72332.66;10542682;28;20191;-72
2023/06/25 18:23:43;;;;;;;7.47;4.65;;;;;;;-145.68;47.86;72422.59;10542635;28;20225;-71
2023/06/25 18:28:43;;;;;;;4.82;4.07;;;;;;;-145.68;48.33;72466.56;10551786;28;20272;-71
2023/06/25 18:33:44;;;;;;;5.05;4.57;;;;;;;-145.68;47.64;72428.59;10582960;28;20305;-71
2023/06/25 18:38:44;;;;;;;6.53;3.90;;;;;;;-145.68;48.15;72458.56;10583616;28;20202;-72
2023/06/25 18:43:45;;;;;;;7.10;4.28;;;;;;;-145.68;48.98;72514.50;10583662;28;20190;-73
2023/06/25 18:48:45;;;;;;;4.30;3.90;;;;;;;-145.68;51.41;72614.44;10583796;28;20676;-74
2023/06/25 18:53:46;;;;;;;4.75;4.35;;;;;;;-145.68;53.80;72684.38;10582701;28;20214;-73
2023/06/25 18:58:46;;;;;;;5.38;4.88;;;;;;;-145.68;56.80;72732.34;10563049;28;20193;-72
2023/06/25 19:03:47;;;;;;;8.20;4.82;;;;;;;-145.68;59.72;72838.25;10523403;28;20234;-73
2023/06/25 19:08:48;;;;;;;7.40;4.70;;;;;;;-145.68;63.80;72908.19;10545306;28;20186;-74
2023/06/25 19:13:48;;;;;;;8.48;4.45;;;;;;;-145.68;64.04;72916.19;10577121;28;20233;-74
2023/06/25 19:18:49;;;;;;;6.70;4.82;;;;;;;-145.68;66.38;72988.13;10576659;28;20269;-73
2023/06/25 19:23:49;;;;;;;7.15;5.45;;;;;;;-145.68;68.86;73008.13;10576785;28;20189;-73
2023/06/25 19:28:49;;;;;;;8.45;5.32;;;;;;;-145.68;71.44;73022.13;10576009;28;20851;-73
2023/06/25 19:33:50;;;;;;;6.57;5.25;;;;;;;-145.68;72.56;73028.09;10576207;28;20696;-73
2023/06/25 19:38:50;;;;;;;10.02;4.85;;;;;;;-145.68;75.25;73070.06;10577295;28;20580;-73
2023/06/25 19:43:51;;;;;;;10.30;5.07;;;;;;;-145.68;78.89;73122.03;10577487;28;20205;-73
2023/06/25 19:48:51;;;;;;;9.73;4.82;;;;;;;-145.68;79.25;73110.06;10577591;28;20316;-72
2023/06/25 19:53:51;;;;;;;6.03;5.28;;;;;;;-145.68;81.17;73140.03;10576821;28;20213;-75
2023/06/25 19:58:52;;;;;;;5.55;5.05;;;;;;;-145.68;81.50;73146.03;10576553;28;20272;-74
2023/06/25 20:03:52;;;;;;;6.20;5.22;;;;;;;-145.68;83.38;73182.00;10559301;28;20216;-73
2023/06/25 20:08:53;;;;;;;6.60;5.70;;;;;;;-145.68;84.79;73194.00;10576339;28;20204;-73
2023/06/25 20:13:54;;;;;;;6.25;5.28;;;;;;;-145.68;86.80;73231.97;10576365;28;20216;-73
2023/06/25 20:18:54;;;;;;;8.70;5.35;;;;;;;-145.68;87.73;73239.97;10576155;28;20196;-73
2023/06/25 20:23:54;;;;;;;5.57;4.80;;;;;;;-145.68;88.88;73251.94;10566860;28;20183;-73
2023/06/25 20:28:55;;;;;;;7.72;5.97;;;;;;;-145.68;90.28;73269.94;10534658;28;20240;-73
2023/06/25 20:33:55;;;;;;;8.13;5.53;;;;;;;-145.68;90.35;73275.94;10532754;28;20270;-73
2023/06/25 20:38:56;;;;;;;8.15;5.40;;;;;;;-145.68;92.92;73301.91;10534162;28;20263;-73
2023/06/25 20:43:56;;;;;;;7.65;5.68;;;;;;;-145.68;94.65;73323.91;10534329;28;20182;-73
2023/06/25 20:48:56;;;;;;;7.63;5.60;;;;;;;-145.68;96.16;73325.91;10534393;28;20201;-72
2023/06/25 20:53:57;;;;;;;6.63;5.50;;;;;;;-145.68;97.70;73353.88;10534113;28;20831;-73
2023/06/25 20:58:58;;;;;;;7.05;5.45;;;;;;;-145.68;100.00;73373.88;10534173;28;20545;-72
2023/06/25 21:04:01;;;;;;;8.38;5.90;;;;;;;-145.68;100.00;73379.88;10533628;28;20197;-73
2023/06/25 21:09:21;;;;;;;10.52;5.88;;;;;;;-145.68;100.00;73389.88;10501905;28;20198;-73
2023/06/25 21:14:22;;;;;;;7.30;6.00;;;;;;;-145.68;100.00;73403.84;10534212;28;20218;-73
2023/06/25 21:19:22;;;;;;;7.55;5.47;;;;;;;-145.68;100.00;73415.84;10541314;28;20273;-72
2023/06/25 21:24:22;;;;;;;7.75;5.82;;;;;;;-145.68;100.00;73425.84;10547901;28;20197;-72
2023/06/25 21:29:23;;;;;;;8.55;5.38;;;;;;;-145.68;100.00;73441.81;10529096;28;20186;-72
2023/06/25 21:34:23;;;;;;;7.45;5.63;;;;;;;-145.68;100.00;73459.81;10566212;28;20237;-74
2023/06/25 21:39:23;;;;;;;5.88;5.05;;;;;;;-145.68;100.00;73465.81;10589603;27;20208;-73
2023/06/25 21:44:24;;;;;;;9.60;5.70;;;;;;;-145.68;100.00;73471.81;10571579;28;20571;-73
2023/06/25 21:49:24;;;;;;;7.03;5.80;;;;;;;-145.68;100.00;73481.81;10589842;28;20186;-74
2023/06/25 21:54:26;;;;;;;7.43;5.47;;;;;;;-145.68;100.00;73491.81;10589662;28;20216;-74
2023/06/25 21:59:27;;;;;;;9.00;5.65;;;;;;;-145.68;100.00;73517.78;10589769;28;20186;-74
2023/06/25 22:04:27;;;;;;;7.78;5.78;;;;;;;-145.68;100.00;73521.78;10589471;28;20219;-74
2023/06/25 22:09:28;;;;;;;6.95;5.65;;;;;;;-145.68;100.00;73519.78;10589079;28;20623;-74
2023/06/25 22:14:28;;;;;;;6.55;5.32;;;;;;;-145.68;100.00;73519.78;10571067;28;20217;-74
2023/06/25 22:19:28;;;;;;;7.20;6.05;;;;;;;-145.68;100.00;73535.78;10588948;28;20284;-74
2023/06/25 22:24:29;;;;;;;9.25;6.05;;;;;;;-145.68;100.00;73533.78;10589144;28;20223;-74
2023/06/25 22:29:29;;;;;;;6.70;5.90;;;;;;;-145.68;100.00;73549.75;10585600;28;20185;-74
2023/06/25 22:34:29;;;;;;;6.03;5.43;;;;;;;-145.68;100.00;73555.75;10582235;28;20229;-73
2023/06/25 22:39:30;;;;;;;6.40;5.28;;;;;;;-145.68;100.00;73563.75;10581593;28;20206;-74
2023/06/25 22:44:30;;;;;;;7.70;6.40;;;;;;;-145.68;100.00;73565.75;10581785;28;20186;-73